sensor_id;sensor_type;location;lat;lon;timestamp;P1;durP1;ratioP1;P2;durP2;ratioP2
15454;SDS011;21057;51.024;7.540;2023-04-08T00:01:43;32.03;;;29.23;;
15454;SDS011;21057;51.024;7.540;2023-04-08T00:04:11;32.70;;;29.77;;
15454;SDS011;21057;51.024;7.540;2023-04-08T00:06:53;32.80;;;30.00;;
15454;SDS011;21057;51.024;7.540;2023-04-08T00:09:20;32.87;;;30.07;;
15454;SDS011;21057;51.024;7.540;2023-04-08T00:11:58;32.43;;;29.73;;
15454;SDS011;21057;51.024;7.540;2023-04-08T00:14:25;34.37;;;31.27;;
15454;SDS011;21057;51.024;7.540;2023-04-08T00:16:52;34.87;;;31.57;;
15454;SDS011;21057;51.024;7.540;2023-04-08T00:19:24;35.20;;;32.33;;
15454;SDS011;21057;51.024;7.540;2023-04-08T00:21:50;34.10;;;30.57;;
15454;SDS011;21057;51.024;7.540;2023-04-08T00:24:19;35.60;;;32.57;;
15454;SDS011;21057;51.024;7.540;2023-04-08T00:26:46;34.17;;;31.27;;
15454;SDS011;21057;51.024;7.540;2023-04-08T00:29:12;34.60;;;31.60;;
15454;SDS011;21057;51.024;7.540;2023-04-08T00:31:39;36.83;;;33.80;;
15454;SDS011;21057;51.024;7.540;2023-04-08T00:34:06;35.50;;;32.50;;
15454;SDS011;21057;51.024;7.540;2023-04-08T00:36:33;34.50;;;31.00;;
15454;SDS011;21057;51.024;7.540;2023-04-08T00:39:00;32.90;;;29.93;;
15454;SDS011;21057;51.024;7.540;2023-04-08T00:41:29;33.77;;;31.00;;
15454;SDS011;21057;51.024;7.540;2023-04-08T00:43:56;34.40;;;31.13;;
15454;SDS011;21057;51.024;7.540;2023-04-08T00:46:23;33.90;;;31.10;;
15454;SDS011;21057;51.024;7.540;2023-04-08T00:51:22;33.87;;;30.70;;
15454;SDS011;21057;51.024;7.540;2023-04-08T00:53:50;33.50;;;30.47;;
15454;SDS011;21057;51.024;7.540;2023-04-08T00:56:17;33.63;;;30.23;;
15454;SDS011;21057;51.024;7.540;2023-04-08T00:58:45;35.70;;;31.90;;
15454;SDS011;21057;51.024;7.540;2023-04-08T01:01:13;37.63;;;31.20;;
15454;SDS011;21057;51.024;7.540;2023-04-08T01:03:49;33.70;;;30.77;;
15454;SDS011;21057;51.024;7.540;2023-04-08T01:06:42;32.97;;;30.13;;
15454;SDS011;21057;51.024;7.540;2023-04-08T01:09:14;35.17;;;31.50;;
15454;SDS011;21057;51.024;7.540;2023-04-08T01:11:45;34.07;;;30.73;;
15454;SDS011;21057;51.024;7.540;2023-04-08T01:14:18;34.00;;;30.63;;
15454;SDS011;21057;51.024;7.540;2023-04-08T01:16:47;34.53;;;31.57;;
15454;SDS011;21057;51.024;7.540;2023-04-08T01:19:16;36.23;;;32.53;;
15454;SDS011;21057;51.024;7.540;2023-04-08T01:21:49;34.53;;;31.03;;
15454;SDS011;21057;51.024;7.540;2023-04-08T01:24:17;36.57;;;33.00;;
15454;SDS011;21057;51.024;7.540;2023-04-08T01:26:50;32.83;;;30.03;;
15454;SDS011;21057;51.024;7.540;2023-04-08T01:29:17;34.73;;;31.63;;
15454;SDS011;21057;51.024;7.540;2023-04-08T01:31:45;33.60;;;30.73;;
15454;SDS011;21057;51.024;7.540;2023-04-08T01:34:13;33.70;;;30.87;;
15454;SDS011;21057;51.024;7.540;2023-04-08T01:36:43;36.47;;;32.73;;
15454;SDS011;21057;51.024;7.540;2023-04-08T01:39:11;33.73;;;30.97;;
15454;SDS011;21057;51.024;7.540;2023-04-08T01:41:41;34.97;;;32.03;;
15454;SDS011;21057;51.024;7.540;2023-04-08T01:44:12;33.20;;;30.13;;
15454;SDS011;21057;51.024;7.540;2023-04-08T01:46:41;32.57;;;29.57;;
15454;SDS011;21057;51.024;7.540;2023-04-08T01:49:15;31.70;;;29.00;;
15454;SDS011;21057;51.024;7.540;2023-04-08T01:51:45;33.63;;;30.80;;
15454;SDS011;21057;51.024;7.540;2023-04-08T01:54:14;31.37;;;28.77;;
15454;SDS011;21057;51.024;7.540;2023-04-08T01:56:41;33.37;;;30.60;;
15454;SDS011;21057;51.024;7.540;2023-04-08T01:59:14;31.80;;;28.90;;
15454;SDS011;21057;51.024;7.540;2023-04-08T02:01:43;33.10;;;30.10;;
15454;SDS011;21057;51.024;7.540;2023-04-08T02:04:11;33.80;;;30.53;;
15454;SDS011;21057;51.024;7.540;2023-04-08T02:06:41;32.87;;;29.63;;
15454;SDS011;21057;51.024;7.540;2023-04-08T02:09:09;32.30;;;29.40;;
15454;SDS011;21057;51.024;7.540;2023-04-08T02:11:39;32.27;;;29.60;;
15454;SDS011;21057;51.024;7.540;2023-04-08T02:14:06;31.70;;;29.00;;
15454;SDS011;21057;51.024;7.540;2023-04-08T02:16:36;33.07;;;30.17;;
15454;SDS011;21057;51.024;7.540;2023-04-08T02:19:09;31.13;;;28.53;;
15454;SDS011;21057;51.024;7.540;2023-04-08T02:21:42;32.13;;;29.57;;
15454;SDS011;21057;51.024;7.540;2023-04-08T02:24:22;31.47;;;28.47;;
15454;SDS011;21057;51.024;7.540;2023-04-08T02:26:50;31.07;;;28.50;;
15454;SDS011;21057;51.024;7.540;2023-04-08T02:29:20;32.53;;;29.70;;
15454;SDS011;21057;51.024;7.540;2023-04-08T02:31:48;30.60;;;28.17;;
15454;SDS011;21057;51.024;7.540;2023-04-08T02:34:16;32.57;;;29.73;;
15454;SDS011;21057;51.024;7.540;2023-04-08T02:36:47;32.20;;;29.33;;
15454;SDS011;21057;51.024;7.540;2023-04-08T02:39:15;33.83;;;30.27;;
15454;SDS011;21057;51.024;7.540;2023-04-08T02:41:42;31.40;;;28.60;;
15454;SDS011;21057;51.024;7.540;2023-04-08T02:44:09;32.20;;;29.23;;
15454;SDS011;21057;51.024;7.540;2023-04-08T02:46:35;32.43;;;29.47;;
15454;SDS011;21057;51.024;7.540;2023-04-08T02:49:04;31.30;;;28.57;;
15454;SDS011;21057;51.024;7.540;2023-04-08T02:51:30;30.77;;;27.97;;
15454;SDS011;21057;51.024;7.540;2023-04-08T02:53:57;31.40;;;28.47;;
15454;SDS011;21057;51.024;7.540;2023-04-08T02:56:24;31.70;;;28.67;;
15454;SDS011;21057;51.024;7.540;2023-04-08T02:58:51;31.80;;;29.00;;
15454;SDS011;21057;51.024;7.540;2023-04-08T03:01:18;32.10;;;29.37;;
15454;SDS011;21057;51.024;7.540;2023-04-08T03:03:44;31.20;;;28.37;;
15454;SDS011;21057;51.024;7.540;2023-04-08T03:06:21;32.43;;;29.80;;
15454;SDS011;21057;51.024;7.540;2023-04-08T03:08:47;33.20;;;30.27;;
15454;SDS011;21057;51.024;7.540;2023-04-08T03:11:14;31.13;;;28.67;;
15454;SDS011;21057;51.024;7.540;2023-04-08T03:13:42;31.27;;;28.70;;
15454;SDS011;21057;51.024;7.540;2023-04-08T03:16:10;32.33;;;29.53;;
15454;SDS011;21057;51.024;7.540;2023-04-08T03:21:24;32.20;;;29.60;;
15454;SDS011;21057;51.024;7.540;2023-04-08T03:23:57;31.83;;;29.00;;
15454;SDS011;21057;51.024;7.540;2023-04-08T03:26:24;32.17;;;29.67;;
15454;SDS011;21057;51.024;7.540;2023-04-08T03:28:51;32.47;;;29.73;;
15454;SDS011;21057;51.024;7.540;2023-04-08T03:31:19;32.87;;;29.60;;
15454;SDS011;21057;51.024;7.540;2023-04-08T03:33:46;32.53;;;29.77;;
15454;SDS011;21057;51.024;7.540;2023-04-08T03:36:13;31.57;;;28.77;;
15454;SDS011;21057;51.024;7.540;2023-04-08T03:38:42;32.13;;;29.33;;
15454;SDS011;21057;51.024;7.540;2023-04-08T03:41:10;32.27;;;29.53;;
15454;SDS011;21057;51.024;7.540;2023-04-08T03:43:36;31.53;;;29.13;;
15454;SDS011;21057;51.024;7.540;2023-04-08T03:46:03;32.57;;;29.97;;
15454;SDS011;21057;51.024;7.540;2023-04-08T03:48:30;33.10;;;30.13;;
15454;SDS011;21057;51.024;7.540;2023-04-08T03:50:59;32.43;;;29.23;;
15454;SDS011;21057;51.024;7.540;2023-04-08T03:53:26;34.87;;;31.37;;
15454;SDS011;21057;51.024;7.540;2023-04-08T03:55:54;53.17;;;35.03;;
15454;SDS011;21057;51.024;7.540;2023-04-08T03:58:21;34.37;;;31.67;;
15454;SDS011;21057;51.024;7.540;2023-04-08T04:00:49;35.63;;;30.93;;
15454;SDS011;21057;51.024;7.540;2023-04-08T04:03:16;33.33;;;30.27;;
15454;SDS011;21057;51.024;7.540;2023-04-08T04:05:42;31.30;;;28.87;;
15454;SDS011;21057;51.024;7.540;2023-04-08T04:08:10;32.87;;;29.73;;
15454;SDS011;21057;51.024;7.540;2023-04-08T04:10:37;33.93;;;31.00;;
15454;SDS011;21057;51.024;7.540;2023-04-08T04:13:07;32.73;;;29.73;;
15454;SDS011;21057;51.024;7.540;2023-04-08T04:15:36;34.10;;;30.90;;
15454;SDS011;21057;51.024;7.540;2023-04-08T04:18:03;32.43;;;29.83;;
15454;SDS011;21057;51.024;7.540;2023-04-08T04:20:33;34.23;;;31.30;;
15454;SDS011;21057;51.024;7.540;2023-04-08T04:23:00;33.60;;;31.00;;
15454;SDS011;21057;51.024;7.540;2023-04-08T04:25:27;32.37;;;29.67;;
15454;SDS011;21057;51.024;7.540;2023-04-08T04:27:53;33.40;;;30.00;;
15454;SDS011;21057;51.024;7.540;2023-04-08T04:30:22;33.20;;;30.10;;
15454;SDS011;21057;51.024;7.540;2023-04-08T04:33:03;43.47;;;30.50;;
15454;SDS011;21057;51.024;7.540;2023-04-08T04:35:30;72.33;;;36.67;;
15454;SDS011;21057;51.024;7.540;2023-04-08T04:37:57;65.17;;;34.53;;
15454;SDS011;21057;51.024;7.540;2023-04-08T04:40:24;50.00;;;35.17;;
15454;SDS011;21057;51.024;7.540;2023-04-08T04:42:51;87.40;;;33.57;;
15454;SDS011;21057;51.024;7.540;2023-04-08T04:45:17;62.57;;;33.70;;
15454;SDS011;21057;51.024;7.540;2023-04-08T04:47:46;50.97;;;32.00;;
15454;SDS011;21057;51.024;7.540;2023-04-08T04:50:18;50.73;;;32.73;;
15454;SDS011;21057;51.024;7.540;2023-04-08T04:52:45;65.67;;;32.53;;
15454;SDS011;21057;51.024;7.540;2023-04-08T04:55:14;62.63;;;32.00;;
15454;SDS011;21057;51.024;7.540;2023-04-08T04:57:41;40.60;;;30.10;;
15454;SDS011;21057;51.024;7.540;2023-04-08T05:00:10;47.77;;;29.73;;
15454;SDS011;21057;51.024;7.540;2023-04-08T05:02:39;54.83;;;33.73;;
15454;SDS011;21057;51.024;7.540;2023-04-08T05:05:08;33.93;;;31.43;;
15454;SDS011;21057;51.024;7.540;2023-04-08T05:07:35;35.97;;;32.90;;
15454;SDS011;21057;51.024;7.540;2023-04-08T05:10:01;34.83;;;31.43;;
15454;SDS011;21057;51.024;7.540;2023-04-08T05:12:31;35.60;;;31.97;;
15454;SDS011;21057;51.024;7.540;2023-04-08T05:14:57;37.30;;;31.07;;
15454;SDS011;21057;51.024;7.540;2023-04-08T05:17:24;34.33;;;31.17;;
15454;SDS011;21057;51.024;7.540;2023-04-08T05:19:51;35.07;;;32.17;;
15454;SDS011;21057;51.024;7.540;2023-04-08T05:22:19;47.33;;;31.77;;
15454;SDS011;21057;51.024;7.540;2023-04-08T05:24:47;53.87;;;30.93;;
15454;SDS011;21057;51.024;7.540;2023-04-08T05:27:14;35.43;;;31.77;;
15454;SDS011;21057;51.024;7.540;2023-04-08T05:29:41;37.03;;;33.40;;
15454;SDS011;21057;51.024;7.540;2023-04-08T05:32:08;49.37;;;32.50;;
15454;SDS011;21057;51.024;7.540;2023-04-08T05:34:41;34.83;;;30.97;;
15454;SDS011;21057;51.024;7.540;2023-04-08T05:37:08;35.77;;;32.17;;
15454;SDS011;21057;51.024;7.540;2023-04-08T05:39:36;34.40;;;30.50;;
15454;SDS011;21057;51.024;7.540;2023-04-08T05:42:04;33.10;;;30.40;;
15454;SDS011;21057;51.024;7.540;2023-04-08T05:44:31;60.93;;;32.37;;
15454;SDS011;21057;51.024;7.540;2023-04-08T05:46:58;34.53;;;31.00;;
15454;SDS011;21057;51.024;7.540;2023-04-08T05:49:25;37.70;;;31.17;;
15454;SDS011;21057;51.024;7.540;2023-04-08T05:51:51;34.83;;;31.63;;
15454;SDS011;21057;51.024;7.540;2023-04-08T05:54:18;41.43;;;32.27;;
15454;SDS011;21057;51.024;7.540;2023-04-08T05:56:46;43.60;;;30.60;;
15454;SDS011;21057;51.024;7.540;2023-04-08T05:59:13;38.20;;;32.47;;
15454;SDS011;21057;51.024;7.540;2023-04-08T06:01:40;39.03;;;32.23;;
15454;SDS011;21057;51.024;7.540;2023-04-08T06:04:07;35.03;;;31.43;;
15454;SDS011;21057;51.024;7.540;2023-04-08T06:06:45;47.77;;;32.77;;
15454;SDS011;21057;51.024;7.540;2023-04-08T06:09:11;42.57;;;33.50;;
15454;SDS011;21057;51.024;7.540;2023-04-08T06:11:41;47.93;;;33.40;;
15454;SDS011;21057;51.024;7.540;2023-04-08T06:14:09;36.30;;;33.17;;
15454;SDS011;21057;51.024;7.540;2023-04-08T06:16:36;48.10;;;32.33;;
15454;SDS011;21057;51.024;7.540;2023-04-08T06:19:03;71.13;;;33.03;;
15454;SDS011;21057;51.024;7.540;2023-04-08T06:21:30;43.83;;;32.37;;
15454;SDS011;21057;51.024;7.540;2023-04-08T06:24:08;38.73;;;32.07;;
15454;SDS011;21057;51.024;7.540;2023-04-08T06:26:35;36.03;;;31.93;;
15454;SDS011;21057;51.024;7.540;2023-04-08T06:29:02;37.67;;;33.60;;
15454;SDS011;21057;51.024;7.540;2023-04-08T06:31:30;36.00;;;32.27;;
15454;SDS011;21057;51.024;7.540;2023-04-08T06:33:57;45.63;;;32.47;;
15454;SDS011;21057;51.024;7.540;2023-04-08T06:36:24;36.90;;;33.53;;
15454;SDS011;21057;51.024;7.540;2023-04-08T06:38:52;44.50;;;34.00;;
15454;SDS011;21057;51.024;7.540;2023-04-08T06:41:19;37.53;;;33.87;;
15454;SDS011;21057;51.024;7.540;2023-04-08T06:43:45;34.73;;;31.73;;
15454;SDS011;21057;51.024;7.540;2023-04-08T06:46:14;33.27;;;30.43;;
15454;SDS011;21057;51.024;7.540;2023-04-08T06:48:42;35.43;;;31.40;;
15454;SDS011;21057;51.024;7.540;2023-04-08T06:51:09;36.50;;;30.73;;
15454;SDS011;21057;51.024;7.540;2023-04-08T06:53:36;34.47;;;31.07;;
15454;SDS011;21057;51.024;7.540;2023-04-08T06:56:03;33.63;;;30.87;;
15454;SDS011;21057;51.024;7.540;2023-04-08T06:58:33;32.73;;;29.77;;
15454;SDS011;21057;51.024;7.540;2023-04-08T07:01:00;34.20;;;30.77;;
15454;SDS011;21057;51.024;7.540;2023-04-08T07:03:28;33.53;;;30.60;;
15454;SDS011;21057;51.024;7.540;2023-04-08T07:05:58;36.10;;;32.93;;
15454;SDS011;21057;51.024;7.540;2023-04-08T07:08:25;36.13;;;32.80;;
15454;SDS011;21057;51.024;7.540;2023-04-08T07:10:52;36.83;;;33.50;;
15454;SDS011;21057;51.024;7.540;2023-04-08T07:13:18;35.77;;;32.30;;
15454;SDS011;21057;51.024;7.540;2023-04-08T07:15:45;35.47;;;32.10;;
15454;SDS011;21057;51.024;7.540;2023-04-08T07:20:42;37.47;;;33.97;;
15454;SDS011;21057;51.024;7.540;2023-04-08T07:23:10;34.37;;;31.20;;
15454;SDS011;21057;51.024;7.540;2023-04-08T07:25:39;36.23;;;33.03;;
15454;SDS011;21057;51.024;7.540;2023-04-08T07:28:06;37.07;;;33.50;;
15454;SDS011;21057;51.024;7.540;2023-04-08T07:30:33;33.37;;;30.37;;
15454;SDS011;21057;51.024;7.540;2023-04-08T07:33:00;34.03;;;30.83;;
15454;SDS011;21057;51.024;7.540;2023-04-08T07:35:27;37.77;;;33.83;;
15454;SDS011;21057;51.024;7.540;2023-04-08T07:37:54;36.03;;;32.47;;
15454;SDS011;21057;51.024;7.540;2023-04-08T07:40:23;37.67;;;33.87;;
15454;SDS011;21057;51.024;7.540;2023-04-08T07:42:49;35.60;;;32.07;;
15454;SDS011;21057;51.024;7.540;2023-04-08T07:45:17;36.30;;;32.73;;
15454;SDS011;21057;51.024;7.540;2023-04-08T07:47:43;36.47;;;32.70;;
15454;SDS011;21057;51.024;7.540;2023-04-08T07:50:11;36.20;;;32.40;;
15454;SDS011;21057;51.024;7.540;2023-04-08T07:52:38;35.67;;;31.83;;
15454;SDS011;21057;51.024;7.540;2023-04-08T07:55:05;37.37;;;33.60;;
15454;SDS011;21057;51.024;7.540;2023-04-08T07:57:34;36.53;;;32.60;;
15454;SDS011;21057;51.024;7.540;2023-04-08T08:00:01;37.67;;;33.67;;
15454;SDS011;21057;51.024;7.540;2023-04-08T08:02:30;39.20;;;31.33;;
15454;SDS011;21057;51.024;7.540;2023-04-08T08:04:59;37.63;;;33.53;;
15454;SDS011;21057;51.024;7.540;2023-04-08T08:07:27;38.83;;;33.93;;
15454;SDS011;21057;51.024;7.540;2023-04-08T08:09:54;41.80;;;37.33;;
15454;SDS011;21057;51.024;7.540;2023-04-08T08:12:21;40.57;;;35.33;;
15454;SDS011;21057;51.024;7.540;2023-04-08T08:14:50;40.33;;;36.07;;
15454;SDS011;21057;51.024;7.540;2023-04-08T08:17:18;42.93;;;38.30;;
15454;SDS011;21057;51.024;7.540;2023-04-08T08:19:45;42.90;;;38.07;;
15454;SDS011;21057;51.024;7.540;2023-04-08T08:22:12;45.53;;;36.37;;
15454;SDS011;21057;51.024;7.540;2023-04-08T08:24:39;44.70;;;36.40;;
15454;SDS011;21057;51.024;7.540;2023-04-08T08:27:07;39.90;;;34.13;;
15454;SDS011;21057;51.024;7.540;2023-04-08T08:29:35;48.07;;;35.17;;
15454;SDS011;21057;51.024;7.540;2023-04-08T08:32:04;42.73;;;34.70;;
15454;SDS011;21057;51.024;7.540;2023-04-08T08:34:31;47.40;;;36.43;;
15454;SDS011;21057;51.024;7.540;2023-04-08T08:36:58;41.63;;;34.33;;
15454;SDS011;21057;51.024;7.540;2023-04-08T08:39:25;53.50;;;34.87;;
15454;SDS011;21057;51.024;7.540;2023-04-08T08:41:52;48.77;;;36.07;;
15454;SDS011;21057;51.024;7.540;2023-04-08T08:44:20;48.07;;;36.57;;
15454;SDS011;21057;51.024;7.540;2023-04-08T08:46:48;39.17;;;33.77;;
15454;SDS011;21057;51.024;7.540;2023-04-08T08:49:16;42.83;;;33.27;;
15454;SDS011;21057;51.024;7.540;2023-04-08T08:51:44;45.00;;;34.33;;
15454;SDS011;21057;51.024;7.540;2023-04-08T08:54:12;50.77;;;34.57;;
15454;SDS011;21057;51.024;7.540;2023-04-08T08:56:40;47.57;;;32.43;;
15454;SDS011;21057;51.024;7.540;2023-04-08T08:59:08;46.33;;;33.50;;
15454;SDS011;21057;51.024;7.540;2023-04-08T09:01:36;44.60;;;31.90;;
15454;SDS011;21057;51.024;7.540;2023-04-08T09:04:05;41.50;;;32.67;;
15454;SDS011;21057;51.024;7.540;2023-04-08T09:06:39;37.20;;;32.67;;
15454;SDS011;21057;51.024;7.540;2023-04-08T09:09:06;43.83;;;32.30;;
15454;SDS011;21057;51.024;7.540;2023-04-08T09:11:35;34.60;;;31.20;;
15454;SDS011;21057;51.024;7.540;2023-04-08T09:14:17;33.83;;;30.57;;
15454;SDS011;21057;51.024;7.540;2023-04-08T09:16:47;41.17;;;31.37;;
15454;SDS011;21057;51.024;7.540;2023-04-08T09:19:14;36.30;;;31.53;;
15454;SDS011;21057;51.024;7.540;2023-04-08T09:21:43;35.53;;;30.47;;
15454;SDS011;21057;51.024;7.540;2023-04-08T09:24:26;33.33;;;29.77;;
15454;SDS011;21057;51.024;7.540;2023-04-08T09:26:54;31.33;;;28.13;;
15454;SDS011;21057;51.024;7.540;2023-04-08T09:29:22;32.23;;;28.90;;
15454;SDS011;21057;51.024;7.540;2023-04-08T09:31:52;31.20;;;27.90;;
15454;SDS011;21057;51.024;7.540;2023-04-08T09:34:21;31.60;;;27.07;;
15454;SDS011;21057;51.024;7.540;2023-04-08T09:36:51;30.20;;;27.10;;
15454;SDS011;21057;51.024;7.540;2023-04-08T09:39:18;27.87;;;25.27;;
15454;SDS011;21057;51.024;7.540;2023-04-08T09:41:47;28.40;;;25.63;;
15454;SDS011;21057;51.024;7.540;2023-04-08T09:44:17;28.07;;;25.37;;
15454;SDS011;21057;51.024;7.540;2023-04-08T09:46:54;27.93;;;25.53;;
15454;SDS011;21057;51.024;7.540;2023-04-08T09:49:32;27.07;;;24.77;;
15454;SDS011;21057;51.024;7.540;2023-04-08T09:52:05;26.20;;;23.90;;
15454;SDS011;21057;51.024;7.540;2023-04-08T09:54:37;27.10;;;24.60;;
15454;SDS011;21057;51.024;7.540;2023-04-08T09:57:09;27.37;;;24.73;;
15454;SDS011;21057;51.024;7.540;2023-04-08T09:59:44;26.63;;;24.43;;
15454;SDS011;21057;51.024;7.540;2023-04-08T10:02:18;27.77;;;25.20;;
15454;SDS011;21057;51.024;7.540;2023-04-08T10:04:59;27.30;;;24.70;;
15454;SDS011;21057;51.024;7.540;2023-04-08T10:07:31;27.30;;;24.97;;
15454;SDS011;21057;51.024;7.540;2023-04-08T10:12:35;27.00;;;24.47;;
15454;SDS011;21057;51.024;7.540;2023-04-08T10:17:48;26.27;;;23.93;;
15454;SDS011;21057;51.024;7.540;2023-04-08T10:23:08;27.63;;;25.27;;
15454;SDS011;21057;51.024;7.540;2023-04-08T10:25:37;26.20;;;23.83;;
15454;SDS011;21057;51.024;7.540;2023-04-08T10:30:53;27.20;;;24.50;;
15454;SDS011;21057;51.024;7.540;2023-04-08T10:33:22;26.77;;;24.40;;
15454;SDS011;21057;51.024;7.540;2023-04-08T10:35:52;29.07;;;26.17;;
15454;SDS011;21057;51.024;7.540;2023-04-08T10:38:21;27.40;;;24.77;;
15454;SDS011;21057;51.024;7.540;2023-04-08T10:40:50;28.40;;;25.80;;
15454;SDS011;21057;51.024;7.540;2023-04-08T10:43:17;25.93;;;23.57;;
15454;SDS011;21057;51.024;7.540;2023-04-08T10:45:44;26.70;;;24.20;;
15454;SDS011;21057;51.024;7.540;2023-04-08T10:48:16;27.10;;;24.67;;
15454;SDS011;21057;51.024;7.540;2023-04-08T10:50:44;28.13;;;25.40;;
15454;SDS011;21057;51.024;7.540;2023-04-08T10:53:23;26.37;;;23.93;;
15454;SDS011;21057;51.024;7.540;2023-04-08T10:55:52;26.00;;;23.80;;
15454;SDS011;21057;51.024;7.540;2023-04-08T10:58:19;25.33;;;23.27;;
15454;SDS011;21057;51.024;7.540;2023-04-08T11:00:46;27.03;;;24.53;;
15454;SDS011;21057;51.024;7.540;2023-04-08T11:03:13;25.80;;;23.57;;
15454;SDS011;21057;51.024;7.540;2023-04-08T11:05:40;25.90;;;23.57;;
15454;SDS011;21057;51.024;7.540;2023-04-08T11:08:07;26.87;;;24.77;;
15454;SDS011;21057;51.024;7.540;2023-04-08T11:10:37;26.13;;;23.47;;
15454;SDS011;21057;51.024;7.540;2023-04-08T11:13:07;24.30;;;22.40;;
15454;SDS011;21057;51.024;7.540;2023-04-08T11:15:34;24.60;;;22.67;;
15454;SDS011;21057;51.024;7.540;2023-04-08T11:18:02;24.33;;;22.57;;
15454;SDS011;21057;51.024;7.540;2023-04-08T11:23:20;22.27;;;20.60;;
15454;SDS011;21057;51.024;7.540;2023-04-08T11:25:48;22.53;;;21.00;;
15454;SDS011;21057;51.024;7.540;2023-04-08T11:28:16;23.63;;;21.70;;
15454;SDS011;21057;51.024;7.540;2023-04-08T11:30:43;23.63;;;21.80;;
15454;SDS011;21057;51.024;7.540;2023-04-08T11:33:12;24.07;;;22.40;;
15454;SDS011;21057;51.024;7.540;2023-04-08T11:35:39;23.63;;;21.60;;
15454;SDS011;21057;51.024;7.540;2023-04-08T11:38:07;23.63;;;21.60;;
15454;SDS011;21057;51.024;7.540;2023-04-08T11:40:34;23.43;;;21.57;;
15454;SDS011;21057;51.024;7.540;2023-04-08T11:43:12;23.40;;;21.70;;
15454;SDS011;21057;51.024;7.540;2023-04-08T11:45:39;24.63;;;22.90;;
15454;SDS011;21057;51.024;7.540;2023-04-08T11:48:07;24.77;;;22.70;;
15454;SDS011;21057;51.024;7.540;2023-04-08T11:50:35;23.50;;;21.50;;
15454;SDS011;21057;51.024;7.540;2023-04-08T11:53:14;24.13;;;22.23;;
15454;SDS011;21057;51.024;7.540;2023-04-08T11:55:42;24.00;;;22.10;;
15454;SDS011;21057;51.024;7.540;2023-04-08T11:58:09;23.73;;;21.73;;
15454;SDS011;21057;51.024;7.540;2023-04-08T12:00:37;23.70;;;21.90;;
15454;SDS011;21057;51.024;7.540;2023-04-08T12:03:17;24.27;;;22.17;;
15454;SDS011;21057;51.024;7.540;2023-04-08T12:05:44;24.83;;;22.53;;
15454;SDS011;21057;51.024;7.540;2023-04-08T12:10:46;24.23;;;22.37;;
15454;SDS011;21057;51.024;7.540;2023-04-08T12:13:14;24.00;;;22.20;;
15454;SDS011;21057;51.024;7.540;2023-04-08T12:15:41;25.23;;;22.90;;
15454;SDS011;21057;51.024;7.540;2023-04-08T12:18:08;22.63;;;20.50;;
15454;SDS011;21057;51.024;7.540;2023-04-08T12:20:35;22.20;;;20.50;;
15454;SDS011;21057;51.024;7.540;2023-04-08T12:23:03;23.57;;;21.63;;
15454;SDS011;21057;51.024;7.540;2023-04-08T12:25:32;24.00;;;21.90;;
15454;SDS011;21057;51.024;7.540;2023-04-08T12:27:59;23.10;;;21.40;;
15454;SDS011;21057;51.024;7.540;2023-04-08T12:30:27;22.70;;;21.10;;
15454;SDS011;21057;51.024;7.540;2023-04-08T12:33:00;22.13;;;20.40;;
15454;SDS011;21057;51.024;7.540;2023-04-08T12:35:27;23.77;;;21.43;;
15454;SDS011;21057;51.024;7.540;2023-04-08T12:37:54;22.80;;;21.00;;
15454;SDS011;21057;51.024;7.540;2023-04-08T12:40:21;22.47;;;20.77;;
15454;SDS011;21057;51.024;7.540;2023-04-08T12:42:47;23.93;;;21.97;;
15454;SDS011;21057;51.024;7.540;2023-04-08T12:45:15;23.35;;;21.45;;
15454;SDS011;21057;51.024;7.540;2023-04-08T12:47:43;22.80;;;21.20;;
15454;SDS011;21057;51.024;7.540;2023-04-08T12:50:11;24.17;;;22.38;;
15454;SDS011;21057;51.024;7.540;2023-04-08T12:52:39;24.13;;;22.33;;
15454;SDS011;21057;51.024;7.540;2023-04-08T12:55:06;23.95;;;22.08;;
15454;SDS011;21057;51.024;7.540;2023-04-08T12:57:35;23.48;;;21.55;;
15454;SDS011;21057;51.024;7.540;2023-04-08T13:00:03;23.08;;;21.30;;
15454;SDS011;21057;51.024;7.540;2023-04-08T13:02:32;22.75;;;21.02;;
15454;SDS011;21057;51.024;7.540;2023-04-08T13:05:00;21.67;;;19.90;;
15454;SDS011;21057;51.024;7.540;2023-04-08T13:07:27;23.90;;;22.00;;
15454;SDS011;21057;51.024;7.540;2023-04-08T13:09:55;23.13;;;21.08;;
15454;SDS011;21057;51.024;7.540;2023-04-08T13:12:22;22.25;;;20.60;;
15454;SDS011;21057;51.024;7.540;2023-04-08T13:14:50;21.95;;;20.35;;
15454;SDS011;21057;51.024;7.540;2023-04-08T13:17:17;22.05;;;20.30;;
15454;SDS011;21057;51.024;7.540;2023-04-08T13:19:46;22.73;;;20.92;;
15454;SDS011;21057;51.024;7.540;2023-04-08T13:22:15;21.33;;;19.83;;
15454;SDS011;21057;51.024;7.540;2023-04-08T13:24:42;22.88;;;20.98;;
15454;SDS011;21057;51.024;7.540;2023-04-08T13:27:09;22.95;;;21.35;;
15454;SDS011;21057;51.024;7.540;2023-04-08T13:29:36;23.35;;;21.55;;
15454;SDS011;21057;51.024;7.540;2023-04-08T13:32:02;23.27;;;21.42;;
15454;SDS011;21057;51.024;7.540;2023-04-08T13:34:34;23.40;;;21.70;;
15454;SDS011;21057;51.024;7.540;2023-04-08T13:37:01;24.07;;;22.00;;
15454;SDS011;21057;51.024;7.540;2023-04-08T13:39:29;23.25;;;21.55;;
15454;SDS011;21057;51.024;7.540;2023-04-08T13:41:56;23.43;;;21.73;;
15454;SDS011;21057;51.024;7.540;2023-04-08T13:44:23;23.30;;;21.57;;
15454;SDS011;21057;51.024;7.540;2023-04-08T13:46:50;24.13;;;22.23;;
15454;SDS011;21057;51.024;7.540;2023-04-08T13:49:17;23.43;;;21.53;;
15454;SDS011;21057;51.024;7.540;2023-04-08T13:51:44;23.73;;;22.03;;
15454;SDS011;21057;51.024;7.540;2023-04-08T13:54:12;24.17;;;22.07;;
15454;SDS011;21057;51.024;7.540;2023-04-08T13:56:40;23.50;;;21.73;;
15454;SDS011;21057;51.024;7.540;2023-04-08T13:59:07;22.97;;;21.37;;
15454;SDS011;21057;51.024;7.540;2023-04-08T14:01:34;23.73;;;21.87;;
15454;SDS011;21057;51.024;7.540;2023-04-08T14:04:01;24.53;;;22.63;;
15454;SDS011;21057;51.024;7.540;2023-04-08T14:06:28;24.03;;;22.23;;
15454;SDS011;21057;51.024;7.540;2023-04-08T14:08:55;24.00;;;22.07;;
15454;SDS011;21057;51.024;7.540;2023-04-08T14:11:23;24.00;;;22.10;;
15454;SDS011;21057;51.024;7.540;2023-04-08T14:13:51;23.77;;;22.00;;
15454;SDS011;21057;51.024;7.540;2023-04-08T14:16:18;25.07;;;23.07;;
15454;SDS011;21057;51.024;7.540;2023-04-08T14:18:45;24.90;;;23.10;;
15454;SDS011;21057;51.024;7.540;2023-04-08T14:21:12;26.07;;;23.67;;
15454;SDS011;21057;51.024;7.540;2023-04-08T14:23:40;25.23;;;23.23;;
15454;SDS011;21057;51.024;7.540;2023-04-08T14:26:06;25.27;;;23.27;;
15454;SDS011;21057;51.024;7.540;2023-04-08T14:28:33;25.20;;;22.97;;
15454;SDS011;21057;51.024;7.540;2023-04-08T14:31:01;24.13;;;22.33;;
15454;SDS011;21057;51.024;7.540;2023-04-08T14:33:39;24.03;;;22.13;;
15454;SDS011;21057;51.024;7.540;2023-04-08T14:36:06;23.23;;;21.53;;
15454;SDS011;21057;51.024;7.540;2023-04-08T14:38:33;23.37;;;21.67;;
15454;SDS011;21057;51.024;7.540;2023-04-08T14:41:00;24.03;;;22.13;;
15454;SDS011;21057;51.024;7.540;2023-04-08T14:43:26;24.23;;;22.33;;
15454;SDS011;21057;51.024;7.540;2023-04-08T14:45:53;23.70;;;21.90;;
15454;SDS011;21057;51.024;7.540;2023-04-08T14:48:22;24.20;;;22.30;;
15454;SDS011;21057;51.024;7.540;2023-04-08T14:50:56;24.83;;;22.80;;
15454;SDS011;21057;51.024;7.540;2023-04-08T14:53:24;24.57;;;22.60;;